Daretown, New Jersey
Current Conditions -  °F | °C
As of 6:54 AM on Monday 26 Jan 2015 (Local Time) from KMIV Reporting Station
Overcast Overcast  
Wind Chill: 21°   Ceiling: 1200
Heat Index: 31°   Visibility: 10mi
Dew Point: 27°   Wind: 14mph
Humidity: 85%   Direction: 70°ENE
Pressure: 29.88"   Gusts: 25mph
Location:  39.5646°N, 75.1874°W
Report Text: KMIV 261154Z AUTO 07012G22KT 10SM OVC012 M01/M03 A2988 RMK AO2 SNE20 SLP119 P0000 60000 T10061028 10033 21006 55006
Loading
Personal Weather Stations






























Interactive Weather Map New forecast layout! Learn more

10-Day Weather Forecast

Advertisements
Track Severe Weather on mobile